Livingston, South Carolina
Current Conditions -  °F | °C
As of 6:53 AM on Monday 26 Jan 2015 (Local Time) from KOGB Reporting Station
Clear Clear  
Wind Chill: 41°   Ceiling: Unl
Heat Index: 41°   Visibility: 10mi
Dew Point: 38°   Wind: 0mph
Humidity: 89%   Direction: NA
Pressure: 29.69"   Gusts: NA
Location:  33.538°N, 81.0853°W
Report Text: KOGB 261153Z AUTO 00000KT 10SM CLR 05/03 A2969 RMK AO2 SLP054 T00500033 10061 20033 55005
Loading
Personal Weather Stations






























Interactive Weather Map New forecast layout! Learn more

10-Day Weather Forecast

Advertisements
Track Severe Weather on mobile